Time;durP1;ratioP1;P1;durP2;ratioP2;P2;SDS_P1;SDS_P2;PMS_P1;PMS_P2;Temp;Humidity;BMP_temperature;BMP_pressure;BME280_temperature;BME280_humidity;BME280_pressure;Samples;Min_cycle;Max_cycle;Signal;HPM_P1;HPM_P2
2023/05/05 00:00:54;;;;;;;2.27;2.00;;;;;;;13.26;47.81;98926.91;5093032;28;43222;-79
2023/05/05 00:03:24;;;;;;;1.97;1.87;;;;;;;13.25;48.15;98935.84;5075079;28;41069;-79
2023/05/05 00:05:53;;;;;;;2.23;2.00;;;;;;;13.21;48.07;98934.41;5093028;28;42707;-78
2023/05/05 00:08:21;;;;;;;2.67;1.90;;;;;;;13.18;48.31;98928.44;5093116;28;42877;-78
2023/05/05 00:10:50;;;;;;;2.03;1.80;;;;;;;13.15;48.53;98924.19;5074970;28;42263;-78
2023/05/05 00:13:18;;;;;;;2.63;2.20;;;;;;;13.04;48.37;98923.22;5058025;28;38853;-79
2023/05/05 00:15:47;;;;;;;2.10;1.90;;;;;;;12.96;48.35;98910.50;5057944;28;40275;-80
2023/05/05 00:18:17;;;;;;;2.30;2.07;;;;;;;13.06;48.57;98927.47;5057522;28;41837;-78
2023/05/05 00:20:47;;;;;;;2.23;1.90;;;;;;;13.03;48.63;98926.84;5074746;28;41141;-78
2023/05/05 00:23:14;;;;;;;2.30;2.10;;;;;;;12.95;48.84;98920.28;5074670;28;39572;-78
2023/05/05 00:25:42;;;;;;;2.53;2.33;;;;;;;12.94;48.60;98926.53;5092532;28;42804;-79
2023/05/05 00:28:10;;;;;;;2.40;2.20;;;;;;;12.90;49.04;98916.22;5074664;28;43446;-78
2023/05/05 00:30:39;;;;;;;2.80;2.43;;;;;;;12.86;49.20;98914.72;5074957;28;43294;-78
2023/05/05 00:33:06;;;;;;;2.40;2.10;;;;;;;12.80;49.13;98917.84;5058033;28;39159;-79
2023/05/05 00:35:34;;;;;;;2.40;2.20;;;;;;;12.65;49.18;98900.31;5074823;28;41508;-78
2023/05/05 00:38:04;;;;;;;2.97;2.17;;;;;;;12.70;49.42;98914.13;5074651;28;42571;-79
2023/05/05 00:40:31;;;;;;;2.50;2.30;;;;;;;12.61;49.86;98906.81;5074369;28;41001;-79
2023/05/05 00:42:59;;;;;;;2.73;2.30;;;;;;;12.63;50.18;98902.22;5057501;28;40399;-79
2023/05/05 00:45:27;;;;;;;3.27;2.67;;;;;;;12.61;49.87;98907.63;5074418;28;41671;-79
2023/05/05 00:47:59;;;;;;;2.47;2.20;;;;;;;12.61;49.96;98906.81;5074190;28;41666;-78
2023/05/05 00:50:27;;;;;;;2.00;1.90;;;;;;;12.60;50.36;98905.97;5057193;28;42524;-78
2023/05/05 00:53:00;;;;;;;2.80;2.60;;;;;;;12.46;50.60;98880.34;5092017;28;41829;-79
2023/05/05 00:55:30;;;;;;;3.50;2.70;;;;;;;12.61;50.60;98904.16;5057938;28;40959;-79
2023/05/05 00:57:59;;;;;;;2.50;2.30;;;;;;;12.54;50.27;98888.63;5092347;28;42532;-79
2023/05/05 01:00:27;;;;;;;2.80;2.47;;;;;;;12.50;50.25;98873.84;5057312;28;41194;-79
2023/05/05 01:02:55;;;;;;;3.03;2.70;;;;;;;12.53;50.26;98886.94;5057118;28;39124;-79
2023/05/05 01:05:24;;;;;;;2.93;2.57;;;;;;;12.57;50.49;98896.41;5073966;28;41845;-79
2023/05/05 01:08:23;;;;;;;2.77;2.23;;;;;;;12.66;50.63;98904.66;5073989;28;43525;-79
2023/05/05 01:10:57;;;;;;;3.00;2.43;;;;;;;12.61;50.80;98897.00;5071247;28;42150;-78
2023/05/05 01:13:37;;;;;;;2.10;1.90;;;;;;;12.65;50.88;98908.28;5073473;28;40665;-79
2023/05/05 01:16:12;;;;;;;2.50;2.30;;;;;;;12.64;50.90;98895.94;5088585;28;41871;-78
2023/05/05 01:18:47;;;;;;;2.53;2.23;;;;;;;12.61;50.65;98904.97;5073046;28;43798;-78
2023/05/05 01:21:23;;;;;;;2.60;2.40;;;;;;;12.63;50.93;98910.19;5057292;28;41212;-79
2023/05/05 01:24:23;;;;;;;3.00;2.17;;;;;;;12.62;50.88;98908.50;5057756;28;38915;-80
2023/05/05 01:27:05;;;;;;;2.30;2.10;;;;;;;12.62;50.75;98908.50;5068630;28;40454;-79
2023/05/05 01:29:55;;;;;;;2.27;2.07;;;;;;;12.62;50.61;98913.81;5070570;28;42784;-78
2023/05/05 01:32:28;;;;;;;3.27;2.37;;;;;;;12.61;50.20;98914.78;5072907;28;41549;-79
2023/05/05 01:35:01;;;;;;;2.60;2.40;;;;;;;12.60;50.56;98913.94;5057269;28;38338;-79
2023/05/05 01:37:37;;;;;;;1.87;1.77;;;;;;;12.60;50.63;98911.28;5072082;28;41817;-78
2023/05/05 01:40:08;;;;;;;3.33;1.87;;;;;;;12.59;50.46;98915.75;5070692;28;43842;-78
2023/05/05 01:42:38;;;;;;;2.47;1.90;;;;;;;12.63;50.29;98912.84;5056106;28;42161;-78
2023/05/05 01:45:08;;;;;;;2.23;2.07;;;;;;;12.64;50.58;98914.53;5056747;28;40620;-78
2023/05/05 01:47:39;;;;;;;2.20;1.83;;;;;;;12.70;50.97;98911.47;5073406;28;43246;-79
2023/05/05 01:50:08;;;;;;;2.40;2.20;;;;;;;12.75;50.63;98910.19;5056871;28;42683;-79
2023/05/05 01:52:37;;;;;;;3.20;2.27;;;;;;;12.76;50.83;98900.41;5056651;28;41157;-78
2023/05/05 01:55:07;;;;;;;2.10;1.90;;;;;;;12.72;50.72;98883.00;5073455;28;39857;-79
2023/05/05 01:57:37;;;;;;;2.93;2.57;;;;;;;12.76;50.78;98884.47;5073068;28;42708;-79
2023/05/05 02:00:08;;;;;;;2.30;2.10;;;;;;;12.93;50.73;98908.88;5056663;28;42899;-79
2023/05/05 02:02:50;;;;;;;2.40;2.20;;;;;;;12.88;50.76;98900.38;5056290;28;41752;-79
2023/05/05 02:05:21;;;;;;;2.57;2.20;;;;;;;12.98;51.01;98895.28;5056921;28;38943;-79
2023/05/05 02:07:51;;;;;;;3.90;3.00;;;;;;;13.01;51.06;98897.69;5055905;28;40648;-78
2023/05/05 02:10:19;;;;;;;2.40;2.20;;;;;;;13.04;51.16;98894.81;5091501;28;43682;-79
2023/05/05 02:12:48;;;;;;;2.70;2.50;;;;;;;13.07;51.26;98891.09;5073394;28;42556;-78
2023/05/05 02:15:17;;;;;;;3.17;2.87;;;;;;;13.11;51.21;98895.22;5073335;28;40091;-79
2023/05/05 02:17:48;;;;;;;2.57;2.30;;;;;;;13.06;51.53;98887.59;5072573;28;41883;-78
2023/05/05 02:20:17;;;;;;;2.53;2.33;;;;;;;13.10;51.17;98894.41;5070103;28;43076;-80
2023/05/05 02:22:44;;;;;;;2.63;2.40;;;;;;;13.12;51.22;98889.78;5073005;28;42166;-79
2023/05/05 02:25:12;;;;;;;3.30;2.60;;;;;;;13.14;51.45;98879.06;5091157;28;40204;-78
2023/05/05 02:27:43;;;;;;;2.60;2.33;;;;;;;13.14;51.55;98885.25;5073003;28;42709;-79
2023/05/05 02:30:14;;;;;;;2.97;2.67;;;;;;;13.14;52.08;98885.25;5057227;28;41905;-79
2023/05/05 02:32:48;;;;;;;3.10;2.80;;;;;;;13.02;51.82;98870.16;5075390;28;42632;-79
2023/05/05 02:35:21;;;;;;;3.37;3.00;;;;;;;13.07;51.88;98889.28;5074169;28;41884;-78
2023/05/05 02:37:58;;;;;;;2.80;2.60;;;;;;;13.03;52.07;98881.63;5075730;28;41850;-79
2023/05/05 02:40:31;;;;;;;3.27;2.70;;;;;;;12.97;52.01;98879.44;5059524;28;41896;-79
2023/05/05 02:43:03;;;;;;;3.57;3.20;;;;;;;12.90;52.19;98877.19;5075985;28;42358;-79
2023/05/05 02:45:32;;;;;;;2.70;2.50;;;;;;;12.85;52.04;98874.03;5073483;28;40999;-78
2023/05/05 02:48:03;;;;;;;4.40;2.93;;;;;;;12.80;52.17;98892.13;5076328;28;42015;-78
2023/05/05 02:50:36;;;;;;;4.37;3.20;;;;;;;12.72;52.22;98889.16;5073352;28;43852;-80
2023/05/05 02:53:16;;;;;;;4.27;3.33;;;;;;;12.64;52.15;98893.28;5075863;28;43254;-79
2023/05/05 02:55:51;;;;;;;3.87;2.70;;;;;;;12.55;52.43;98898.31;5076599;28;39973;-79
2023/05/05 02:58:28;;;;;;;2.53;2.33;;;;;;;12.48;52.43;98901.50;5076145;28;41862;-79
2023/05/05 03:01:08;;;;;;;2.80;2.60;;;;;;;12.40;52.62;98896.72;5073729;28;43167;-78
2023/05/05 03:03:40;;;;;;;2.90;2.40;;;;;;;12.34;52.59;98893.63;5094218;28;42508;-78
2023/05/05 03:06:17;;;;;;;2.90;2.60;;;;;;;12.28;53.08;98908.19;5073369;28;40253;-79
2023/05/05 03:08:54;;;;;;;2.73;2.53;;;;;;;12.21;52.97;98904.25;5076431;28;42592;-79
2023/05/05 03:11:29;;;;;;;2.50;2.20;;;;;;;12.18;53.40;98896.50;5073087;28;43563;-79
2023/05/05 03:14:05;;;;;;;2.90;2.70;;;;;;;12.14;53.21;98900.31;5072994;28;42383;-78
2023/05/05 03:16:36;;;;;;;2.27;1.93;;;;;;;12.14;53.31;98895.00;5073678;28;40219;-79
2023/05/05 03:19:08;;;;;;;3.33;3.03;;;;;;;12.12;53.23;98894.25;5058635;28;41923;-79
2023/05/05 03:21:39;;;;;;;2.87;2.30;;;;;;;11.98;53.57;98875.78;5073048;28;42830;-78
2023/05/05 03:24:15;;;;;;;2.60;2.40;;;;;;;12.10;53.48;98890.88;5072411;28;42611;-78
2023/05/05 03:26:46;;;;;;;2.87;2.67;;;;;;;12.10;53.45;98885.56;5073428;28;41483;-79
2023/05/05 03:29:14;;;;;;;2.60;2.40;;;;;;;12.09;53.61;98884.72;5076061;28;41803;-78
2023/05/05 03:31:42;;;;;;;3.03;2.60;;;;;;;11.98;53.77;98870.47;5076133;28;43614;-79
2023/05/05 03:34:10;;;;;;;2.93;2.67;;;;;;;12.07;53.97;98891.06;5093864;28;43237;-79
2023/05/05 03:36:46;;;;;;;3.47;2.83;;;;;;;12.06;53.55;98892.88;5073107;28;40787;-79
2023/05/05 03:39:17;;;;;;;2.90;2.60;;;;;;;12.03;53.70;98886.91;5072604;28;41864;-78
2023/05/05 03:41:45;;;;;;;7.40;3.17;;;;;;;11.99;53.81;98890.75;5074820;28;43092;-79
2023/05/05 03:44:14;;;;;;;3.57;3.00;;;;;;;11.96;53.75;98893.59;5075716;28;42500;-79
2023/05/05 03:46:42;;;;;;;3.37;3.00;;;;;;;11.76;53.67;98871.88;5075606;28;39925;-79
2023/05/05 03:49:13;;;;;;;3.90;3.00;;;;;;;11.84;53.68;98884.66;5058405;28;40522;-79
2023/05/05 03:51:43;;;;;;;2.87;2.67;;;;;;;11.73;54.20;98877.41;5075365;28;43690;-79
2023/05/05 03:54:12;;;;;;;4.40;3.17;;;;;;;11.66;54.26;98867.28;5093444;28;42624;-79
2023/05/05 03:56:40;;;;;;;2.90;2.70;;;;;;;11.71;54.35;98879.28;5075149;28;40956;-79
2023/05/05 03:59:08;;;;;;;2.90;2.70;;;;;;;11.67;54.18;98888.41;5075198;28;42693;-79
2023/05/05 04:01:36;;;;;;;3.67;3.10;;;;;;;11.65;54.44;98889.44;5075219;28;42855;-79
2023/05/05 04:04:04;;;;;;;3.20;2.80;;;;;;;11.64;54.47;98901.00;5075127;28;42313;-79
2023/05/05 04:06:32;;;;;;;3.77;3.30;;;;;;;11.58;54.29;98899.63;5075228;28;40200;-79
2023/05/05 04:08:59;;;;;;;3.07;2.77;;;;;;;11.60;54.86;98903.03;5074993;28;42851;-79
2023/05/05 04:11:29;;;;;;;3.33;2.80;;;;;;;11.63;55.01;98897.50;5057707;28;41781;-79
2023/05/05 04:13:57;;;;;;;4.97;3.60;;;;;;;11.65;55.79;98897.41;5074934;28;41980;-77
2023/05/05 04:16:27;;;;;;;4.80;4.17;;;;;;;11.69;56.09;98901.56;5074270;28;40777;-78
2023/05/05 04:18:55;;;;;;;4.73;4.20;;;;;;;11.72;55.81;98907.53;5071739;28;42445;-78
2023/05/05 04:21:23;;;;;;;4.50;4.10;;;;;;;11.77;55.92;98908.09;5074589;28;42827;-78
2023/05/05 04:23:51;;;;;;;4.70;3.40;;;;;;;11.80;55.96;98915.84;5074894;28;42464;-78
2023/05/05 04:30:48;;;;;;;3.97;3.17;;;;;;;11.82;55.63;98913.09;5093031;28;42385;-79
2023/05/05 04:33:16;;;;;;;3.27;2.97;;;;;;;11.84;55.95;98916.50;5074465;28;42780;-78
2023/05/05 04:35:44;;;;;;;4.33;3.20;;;;;;;11.83;55.75;98915.66;5074450;28;43467;-78
2023/05/05 04:38:11;;;;;;;3.30;2.70;;;;;;;11.89;56.10;98919.69;5092689;28;40227;-78
2023/05/05 04:40:40;;;;;;;3.47;3.13;;;;;;;11.92;56.06;98918.63;5074243;28;42049;-78
2023/05/05 04:43:08;;;;;;;3.57;3.20;;;;;;;11.95;56.09;98924.59;5074033;28;43899;-78
2023/05/05 04:45:37;;;;;;;4.40;3.17;;;;;;;12.00;56.01;98932.22;5074443;28;43195;-78
2023/05/05 04:48:07;;;;;;;4.63;2.70;;;;;;;12.07;55.88;98926.44;5074246;28;40332;-78
2023/05/05 04:50:35;;;;;;;3.80;3.50;;;;;;;12.15;56.07;98931.22;5057505;28;41969;-78
2023/05/05 04:53:03;;;;;;;3.77;3.03;;;;;;;12.15;56.12;98915.28;5073080;28;43040;-77
2023/05/05 04:55:31;;;;;;;3.73;3.43;;;;;;;12.21;56.42;98909.56;5074508;28;42169;-78
2023/05/05 04:57:59;;;;;;;3.80;3.13;;;;;;;12.39;56.29;98928.69;5073846;28;39929;-78
2023/05/05 05:00:26;;;;;;;3.80;3.50;;;;;;;12.37;56.66;98922.63;5074113;28;42326;-78
2023/05/05 05:02:54;;;;;;;4.77;3.97;;;;;;;12.47;56.73;98929.88;5073961;28;43787;-78
2023/05/05 05:05:24;;;;;;;4.27;3.73;;;;;;;12.56;57.78;98936.34;5073998;28;41511;-78
2023/05/05 05:07:51;;;;;;;4.40;4.00;;;;;;;12.61;57.42;98917.44;5073863;28;41580;-78
2023/05/05 05:10:19;;;;;;;5.70;4.37;;;;;;;12.70;57.91;98933.59;5074130;28;42484;-79
2023/05/05 05:12:48;;;;;;;4.03;3.63;;;;;;;12.77;57.70;98932.19;5073851;28;43044;-79
2023/05/05 05:15:15;;;;;;;4.60;4.20;;;;;;;12.80;57.59;98950.59;5057749;28;42239;-79
2023/05/05 05:17:43;;;;;;;4.50;4.10;;;;;;;12.88;57.37;98939.41;5091570;28;40977;-79
2023/05/05 05:20:11;;;;;;;4.17;3.77;;;;;;;13.01;57.25;98948.22;5057538;28;42828;-79
2023/05/05 05:22:41;;;;;;;6.03;3.87;;;;;;;13.12;57.79;98937.66;5073458;28;43835;-79
2023/05/05 05:25:13;;;;;;;4.00;3.60;;;;;;;13.17;57.73;98935.56;5071155;28;42065;-79
2023/05/05 05:27:42;;;;;;;4.40;4.00;;;;;;;13.34;57.68;98936.16;5073923;28;40291;-79
2023/05/05 05:30:11;;;;;;;5.17;3.80;;;;;;;13.42;57.44;98931.13;5073529;28;42846;-80
2023/05/05 05:32:39;;;;;;;5.40;4.40;;;;;;;13.58;57.71;98937.03;5056053;28;41762;-80
2023/05/05 05:35:07;;;;;;;4.20;3.77;;;;;;;13.72;57.57;98944.00;5073804;28;43501;-79
2023/05/05 05:37:35;;;;;;;4.40;4.00;;;;;;;13.80;57.84;98945.13;5073242;28;40067;-78
2023/05/05 05:40:08;;;;;;;4.57;4.10;;;;;;;14.00;57.42;98939.16;5073439;28;41769;-78
2023/05/05 05:42:38;;;;;;;4.43;4.03;;;;;;;14.18;57.37;98942.25;5090126;28;44093;-79
2023/05/05 05:45:08;;;;;;;4.47;4.07;;;;;;;14.38;57.16;98948.72;5073913;28;42355;-79
2023/05/05 05:47:36;;;;;;;5.13;4.60;;;;;;;14.58;56.84;98947.22;5073382;28;40870;-80
2023/05/05 05:50:05;;;;;;;7.43;4.70;;;;;;;14.68;56.49;98941.06;5073714;28;42216;-79
2023/05/05 05:52:34;;;;;;;5.57;4.83;;;;;;;14.84;56.76;98945.19;5073618;28;43664;-79
2023/05/05 05:55:05;;;;;;;5.57;4.37;;;;;;;14.99;56.02;98927.97;5073385;28;42504;-79
2023/05/05 05:57:33;;;;;;;7.43;5.30;;;;;;;15.29;56.46;98930.03;5073468;28;40820;-80
2023/05/05 06:00:01;;;;;;;6.47;4.73;;;;;;;15.53;55.92;98949.38;5073583;28;42875;-80
2023/05/05 06:02:39;;;;;;;5.30;4.80;;;;;;;15.72;55.14;98964.78;5089841;28;42769;-79
2023/05/05 06:05:11;;;;;;;5.43;4.90;;;;;;;15.79;54.59;98953.47;5070411;28;42246;-80
2023/05/05 06:07:40;;;;;;;5.60;5.10;;;;;;;15.97;54.45;98966.28;5073325;28;40941;-79
2023/05/05 06:10:10;;;;;;;7.30;5.10;;;;;;;16.11;53.91;98972.16;5073582;28;42748;-80
2023/05/05 06:12:38;;;;;;;5.87;5.27;;;;;;;16.27;53.27;98976.25;5073282;28;45892;-79
2023/05/05 06:15:06;;;;;;;6.80;5.20;;;;;;;16.41;52.90;98984.78;5073374;28;42877;-79
2023/05/05 06:17:35;;;;;;;7.10;5.30;;;;;;;16.66;52.09;98983.59;5073045;28;40339;-80
2023/05/05 06:20:02;;;;;;;7.40;5.23;;;;;;;16.88;51.19;98987.94;5073003;28;41850;-79
2023/05/05 06:22:30;;;;;;;5.10;4.67;;;;;;;17.03;51.09;98980.41;5072966;28;42881;-80
2023/05/05 06:24:58;;;;;;;5.60;4.80;;;;;;;17.15;50.87;98984.69;5073197;28;42543;-79
2023/05/05 06:27:27;;;;;;;6.27;5.07;;;;;;;17.42;49.90;98990.31;5091315;28;40094;-80
2023/05/05 06:29:55;;;;;;;5.60;5.00;;;;;;;17.79;49.16;98990.59;5091079;28;41564;-79
2023/05/05 06:32:23;;;;;;;5.53;5.03;;;;;;;18.50;47.86;99001.06;5073096;28;43096;-79
2023/05/05 06:34:51;;;;;;;5.70;4.60;;;;;;;19.11;45.85;99014.13;5091236;28;43306;-80
2023/05/05 06:37:19;;;;;;;5.97;5.10;;;;;;;19.32;45.91;99014.75;5091017;28;41021;-80
2023/05/05 06:39:47;;;;;;;6.80;5.50;;;;;;;19.41;45.59;99016.53;5073063;28;41968;-80
2023/05/05 06:42:15;;;;;;;5.50;4.77;;;;;;;19.48;44.82;99024.88;5090769;28;42851;-79
2023/05/05 06:44:44;;;;;;;5.77;5.03;;;;;;;19.68;44.98;99024.66;5090619;28;43767;-79
2023/05/05 06:47:12;;;;;;;4.77;4.37;;;;;;;19.73;44.25;99008.09;5072991;28;41900;-80
2023/05/05 06:49:40;;;;;;;5.37;4.87;;;;;;;19.80;44.63;99013.69;5072772;28;41758;-78
2023/05/05 06:52:08;;;;;;;6.60;5.93;;;;;;;19.85;43.78;99027.53;5090835;28;43646;-80
2023/05/05 06:54:36;;;;;;;6.53;5.10;;;;;;;19.97;44.30;99015.56;5072651;28;43427;-80
2023/05/05 06:57:03;;;;;;;5.30;4.73;;;;;;;20.11;43.77;99023.13;5090880;28;41051;-79
2023/05/05 06:59:31;;;;;;;10.13;5.53;;;;;;;20.10;43.51;99024.13;5072712;28;41765;-79
2023/05/05 07:02:00;;;;;;;8.70;6.47;;;;;;;20.07;42.83;99027.09;5084460;22;42709;-79
2023/05/05 07:04:28;;;;;;;6.43;5.33;;;;;;;20.21;43.39;99023.91;5070506;28;42700;-80
2023/05/05 07:06:57;;;;;;;7.73;6.43;;;;;;;20.57;43.92;99029.31;5070186;28;40047;-78
2023/05/05 07:09:24;;;;;;;5.57;4.93;;;;;;;21.07;42.44;99033.06;5052252;28;42098;-80
2023/05/05 07:11:52;;;;;;;9.17;5.10;;;;;;;21.50;42.85;99028.66;5052625;28;43060;-78
2023/05/05 07:14:20;;;;;;;5.90;5.10;;;;;;;21.57;41.85;99040.47;5070474;28;43231;-80
2023/05/05 07:16:48;;;;;;;5.80;5.20;;;;;;;21.54;41.45;99050.72;5054670;28;40041;-79
2023/05/05 07:19:17;;;;;;;7.10;5.77;;;;;;;21.60;41.04;99050.94;5055563;28;41866;-80
2023/05/05 07:21:46;;;;;;;6.67;5.27;;;;;;;21.64;41.28;99051.44;5055537;28;42905;-78
2023/05/05 07:24:13;;;;;;;7.97;5.10;;;;;;;21.83;41.32;99052.03;5073911;28;42523;-80
2023/05/05 07:26:41;;;;;;;7.03;5.60;;;;;;;22.27;40.62;99043.75;5056305;28;40194;-79
2023/05/05 07:29:09;;;;;;;8.70;6.10;;;;;;;22.62;41.24;99041.81;5056397;28;41845;-79
2023/05/05 07:31:36;;;;;;;8.73;6.60;;;;;;;22.86;40.68;99047.25;5073885;28;43107;-79
2023/05/05 07:34:04;;;;;;;6.17;5.57;;;;;;;22.94;39.96;99047.25;5055464;28;43019;-79
2023/05/05 07:36:34;;;;;;;9.13;6.33;;;;;;;23.15;39.03;99058.34;5073608;28;41174;-80
2023/05/05 07:39:02;;;;;;;7.23;5.93;;;;;;;23.24;37.69;99070.81;5055497;28;41907;-79
2023/05/05 07:41:29;;;;;;;6.20;5.60;;;;;;;23.41;37.58;99071.66;5055301;28;43074;-80
2023/05/05 07:43:57;;;;;;;9.63;5.33;;;;;;;23.82;38.76;99050.78;5073616;28;42551;-80
2023/05/05 07:46:25;;;;;;;6.40;5.57;;;;;;;24.53;37.01;99059.72;5073361;28;40643;-78
2023/05/05 07:48:53;;;;;;;5.97;5.10;;;;;;;25.03;36.13;99064.59;5055279;28;41893;-79
2023/05/05 07:51:21;;;;;;;6.37;5.63;;;;;;;25.39;36.24;99067.47;5054335;28;42172;-79
2023/05/05 07:53:50;;;;;;;5.90;4.80;;;;;;;25.63;36.97;99066.41;5073142;28;42416;-79
2023/05/05 07:56:18;;;;;;;6.37;5.77;;;;;;;25.31;35.41;99043.16;5055286;28;38817;-82
2023/05/05 07:58:46;;;;;;;7.70;5.47;;;;;;;25.27;36.17;99061.66;5073038;28;42865;-80
2023/05/05 08:01:13;;;;;;;6.73;4.93;;;;;;;25.17;35.56;99071.94;5082361;22;42762;-80
2023/05/05 08:03:41;;;;;;;6.70;5.17;;;;;;;25.04;36.42;99077.13;5072363;28;42030;-79
2023/05/05 08:06:09;;;;;;;6.47;4.17;;;;;;;24.95;36.52;99067.41;5093444;28;40760;-79
2023/05/05 08:08:37;;;;;;;5.63;4.97;;;;;;;24.88;36.37;99066.38;5075393;28;42772;-80
2023/05/05 08:11:07;;;;;;;7.17;4.97;;;;;;;24.77;35.84;99083.06;5093137;28;42768;-80
2023/05/05 08:13:35;;;;;;;6.50;4.87;;;;;;;25.18;37.65;99062.78;5075029;28;41307;-81
2023/05/05 08:16:03;;;;;;;6.03;4.87;;;;;;;25.73;36.72;99062.38;5093507;28;41063;-79
2023/05/05 08:18:31;;;;;;;5.47;4.50;;;;;;;26.15;35.44;99076.28;5074659;28;42610;-81
2023/05/05 08:20:58;;;;;;;8.23;6.03;;;;;;;26.50;35.43;99061.06;5075011;28;43567;-80
2023/05/05 08:23:26;;;;;;;6.33;5.73;;;;;;;27.01;33.53;99080.81;5092890;28;43337;-79
2023/05/05 08:25:54;;;;;;;5.90;5.37;;;;;;;27.80;34.47;99070.56;5057360;28;40030;-79
2023/05/05 08:28:23;;;;;;;6.47;5.50;;;;;;;28.72;32.30;99081.81;5074749;28;40824;-81
2023/05/05 08:30:51;;;;;;;6.73;5.17;;;;;;;29.16;31.01;99091.38;5058093;28;42855;-80
2023/05/05 08:33:19;;;;;;;5.73;4.80;;;;;;;29.31;30.82;99087.34;5075843;28;42085;-83
2023/05/05 08:35:48;;;;;;;7.17;5.10;;;;;;;29.69;30.75;99086.72;5076147;28;39086;-79
2023/05/05 08:38:17;;;;;;;6.17;4.77;;;;;;;30.13;30.39;99079.69;5075696;28;40665;-80
2023/05/05 08:40:45;;;;;;;5.20;4.70;;;;;;;30.65;29.97;99092.31;5074704;28;41682;-78
2023/05/05 08:43:14;;;;;;;5.57;5.00;;;;;;;31.38;28.66;99093.47;5075122;28;41873;-80
2023/05/05 08:45:45;;;;;;;5.63;5.13;;;;;;;32.20;28.07;99098.78;5074887;28;40730;-82
2023/05/05 08:48:13;;;;;;;5.80;5.20;;;;;;;32.98;26.94;99107.03;5058014;28;40846;-78
2023/05/05 08:50:48;;;;;;;5.63;5.13;;;;;;;33.62;26.17;99106.22;5057397;28;42780;-78
2023/05/05 08:53:17;;;;;;;7.17;6.13;;;;;;;34.01;25.76;99112.91;5090198;28;42385;-78
2023/05/05 08:55:50;;;;;;;7.40;5.50;;;;;;;34.07;25.29;99108.34;5074575;28;40742;-78
2023/05/05 08:58:19;;;;;;;6.87;5.20;;;;;;;33.73;25.63;99102.63;5071704;28;41778;-80
2023/05/05 09:00:48;;;;;;;6.53;5.80;;;;;;;33.66;25.94;99099.16;5091340;28;43671;-80
2023/05/05 09:03:17;;;;;;;6.30;5.03;;;;;;;33.98;26.32;99098.81;5057680;28;42463;-80
2023/05/05 09:05:45;;;;;;;5.97;5.47;;;;;;;34.10;25.65;99096.88;5092299;28;39873;-80
2023/05/05 09:08:13;;;;;;;4.70;4.30;;;;;;;34.44;26.16;99101.47;5074219;28;41761;-78
2023/05/05 09:10:42;;;;;;;6.00;4.63;;;;;;;34.65;25.91;99099.13;5074039;28;42964;-78
2023/05/05 09:13:10;;;;;;;7.55;5.40;;;;;;;34.96;24.83;99101.41;5057205;28;41182;-79
2023/05/05 09:15:40;;;;;;;6.65;4.93;;;;;;;35.89;23.96;99109.03;5056931;28;40995;-78
2023/05/05 09:18:10;;;;;;;4.57;3.88;;;;;;;37.04;23.68;99113.50;5074291;28;41564;-79
2023/05/05 09:20:39;;;;;;;6.13;4.00;;;;;;;37.18;22.98;99108.44;5073530;28;41811;-80
2023/05/05 09:23:08;;;;;;;6.05;4.03;;;;;;;37.20;22.85;99103.47;5057242;28;41195;-80
2023/05/05 09:25:38;;;;;;;5.00;3.75;;;;;;;36.59;23.13;99099.22;5058201;28;20221;-80
2023/05/05 09:28:10;;;;;;;4.20;3.63;;;;;;;36.50;23.72;99106.25;5073447;28;41826;-79
2023/05/05 09:30:39;;;;;;;5.40;3.78;;;;;;;35.90;24.41;99105.19;5073809;28;41612;-81
2023/05/05 09:33:07;;;;;;;3.80;3.23;;;;;;;35.40;24.22;99090.59;5074035;28;42983;-79
2023/05/05 09:35:54;;;;;;;5.55;3.78;;;;;;;35.81;25.04;99087.41;5073368;28;39238;-82
2023/05/05 09:38:23;;;;;;;4.45;3.60;;;;;;;36.17;24.34;99087.91;5072700;28;40589;-81
2023/05/05 09:40:53;;;;;;;3.28;2.97;;;;;;;36.84;24.31;99073.84;5073787;28;43888;-79
2023/05/05 09:43:22;;;;;;;6.63;4.03;;;;;;;37.29;23.21;99099.13;5090685;28;41980;-80
2023/05/05 09:45:50;;;;;;;4.05;3.50;;;;;;;37.28;22.99;99086.41;5091610;28;41231;-82
2023/05/05 09:48:25;;;;;;;6.72;3.88;;;;;;;36.50;23.32;99085.03;5091667;28;42784;-79
2023/05/05 09:50:55;;;;;;;3.60;3.30;;;;;;;36.02;24.91;99077.50;5089255;28;42945;-81
2023/05/05 09:53:24;;;;;;;4.15;3.55;;;;;;;35.78;24.70;99076.91;5056359;28;41283;-80
2023/05/05 09:55:56;;;;;;;4.10;3.67;;;;;;;35.04;25.33;99054.19;5090343;28;39894;-81
2023/05/05 09:58:25;;;;;;;3.87;3.50;;;;;;;34.74;25.44;99070.97;5056474;28;42119;-81
2023/05/05 10:00:54;;;;;;;3.90;3.60;;;;;;;34.90;25.90;99064.69;5072740;28;41864;-80
2023/05/05 10:03:23;;;;;;;5.97;3.53;;;;;;;35.24;25.75;99054.50;5072986;28;43495;-79
2023/05/05 10:05:52;;;;;;;5.97;3.60;;;;;;;35.58;25.96;99066.41;5091285;28;41163;-79
2023/05/05 10:08:24;;;;;;;3.50;3.07;;;;;;;35.29;24.47;99073.91;5056406;28;40427;-79
2023/05/05 10:10:53;;;;;;;8.60;4.03;;;;;;;34.89;25.35;99052.00;5073121;28;41902;-79
2023/05/05 10:13:22;;;;;;;5.73;3.30;;;;;;;34.78;26.63;99060.31;5072846;28;41509;-80
2023/05/05 10:15:51;;;;;;;6.03;3.70;;;;;;;34.22;27.32;99035.28;5089729;28;40737;-81
2023/05/05 10:18:21;;;;;;;3.87;3.50;;;;;;;34.20;27.70;99047.59;5091078;28;42189;-79
2023/05/05 10:20:55;;;;;;;4.17;3.37;;;;;;;34.51;27.49;99055.41;5055863;28;42801;-81
2023/05/05 10:23:32;;;;;;;3.33;2.90;;;;;;;34.21;27.08;99052.03;5088068;28;42249;-79
2023/05/05 10:26:03;;;;;;;4.37;3.47;;;;;;;34.29;26.64;99051.66;5055754;28;39136;-82
2023/05/05 10:28:34;;;;;;;4.33;3.50;;;;;;;34.68;27.44;99027.09;5072772;28;41838;-81
2023/05/05 10:31:06;;;;;;;3.53;3.07;;;;;;;35.66;25.41;99034.81;5055967;28;41676;-81
2023/05/05 10:33:44;;;;;;;3.83;3.33;;;;;;;35.92;25.41;99050.63;5069940;28;42778;-80
2023/05/05 10:36:12;;;;;;;3.37;3.07;;;;;;;35.87;25.51;99039.53;5071237;28;40044;-81
2023/05/05 10:38:43;;;;;;;3.10;2.80;;;;;;;35.66;25.56;99040.31;5090917;28;41794;-82
2023/05/05 10:41:13;;;;;;;2.93;2.73;;;;;;;35.53;26.61;99027.72;5072427;28;42919;-81
2023/05/05 10:43:42;;;;;;;4.70;3.23;;;;;;;35.77;26.51;99024.78;5056427;28;42286;-81
2023/05/05 10:46:10;;;;;;;5.17;3.00;;;;;;;35.60;25.46;99027.56;5090940;28;40969;-81
2023/05/05 10:48:44;;;;;;;4.77;3.07;;;;;;;35.94;25.73;99023.66;5090812;28;41546;-82
2023/05/05 10:51:24;;;;;;;3.03;2.73;;;;;;;36.53;24.80;99018.28;5056979;28;41697;-80
2023/05/05 10:54:00;;;;;;;2.40;2.20;;;;;;;36.55;24.15;99016.09;5058987;28;41768;-79
2023/05/05 10:56:32;;;;;;;2.67;2.47;;;;;;;36.50;24.13;99016.03;5092573;28;41239;-80
2023/05/05 10:59:00;;;;;;;3.43;2.50;;;;;;;36.33;23.35;99021.66;5059374;28;40376;-82
2023/05/05 11:01:31;;;;;;;3.73;2.83;;;;;;;35.91;23.09;99026.06;5075770;28;43707;-79
2023/05/05 11:04:18;;;;;;;2.67;2.47;;;;;;;35.34;24.13;99009.84;5059144;28;41355;-80
2023/05/05 11:07:25;;;;;;;3.13;2.80;;;;;;;34.94;24.68;99013.56;5093817;28;40937;-78
2023/05/05 11:10:00;;;;;;;2.97;2.57;;;;;;;34.76;25.50;98996.44;5059126;28;40510;-80
2023/05/05 11:12:28;;;;;;;2.37;2.17;;;;;;;34.78;25.59;98999.78;5075588;28;42870;-79
2023/05/05 11:15:36;;;;;;;3.37;2.70;;;;;;;34.92;25.11;98990.97;5092525;28;42304;-80
2023/05/05 11:18:05;;;;;;;3.10;2.40;;;;;;;34.62;25.45;98984.09;5036274;28;38876;-80
2023/05/05 11:21:14;;;;;;;2.50;2.20;;;;;;;34.22;25.97;98979.47;5092160;28;42909;-79
2023/05/05 11:23:43;;;;;;;2.60;2.40;;;;;;;33.87;26.75;98966.69;5075584;28;43300;-80
2023/05/05 11:26:13;;;;;;;2.63;2.27;;;;;;;33.60;27.25;98960.03;5074883;28;43079;-79
2023/05/05 11:29:01;;;;;;;2.60;2.50;;;;;;;33.32;28.47;98941.56;5075257;28;39897;-79
2023/05/05 11:31:30;;;;;;;2.60;2.40;;;;;;;33.32;27.69;98962.69;5090460;28;41929;-79
2023/05/05 11:34:29;;;;;;;4.43;2.07;;;;;;;33.32;27.71;98965.44;5075357;28;42719;-79
2023/05/05 11:37:01;;;;;;;2.63;2.20;;;;;;;33.26;27.18;98958.19;5091882;28;43115;-79
2023/05/05 11:39:38;;;;;;;3.50;2.50;;;;;;;33.18;27.10;98962.91;5058530;28;38637;-79
2023/05/05 11:42:24;;;;;;;3.07;2.13;;;;;;;33.14;27.99;98961.72;5075145;28;40635;-79
2023/05/05 11:44:54;;;;;;;2.13;2.00;;;;;;;33.04;27.56;98958.72;5071994;28;42523;-79
2023/05/05 11:47:29;;;;;;;3.13;2.10;;;;;;;32.99;28.33;98947.66;5074974;28;42245;-80
2023/05/05 11:49:58;;;;;;;4.40;2.47;;;;;;;32.86;27.69;98942.41;5090267;28;41881;-79
2023/05/05 11:52:27;;;;;;;2.67;2.20;;;;;;;32.72;27.54;98951.91;5074705;28;41705;-80
2023/05/05 11:55:01;;;;;;;2.37;2.17;;;;;;;32.49;28.32;98947.19;5075092;28;43574;-79